Cumberland, Iowa
Current Conditions -  °F | °C
As of 9:35 PM on Monday 20 Oct 2014 (Local Time) from KAIO Reporting Station
Haze Haze  
Wind Chill: 45°   Ceiling: Unl
Heat Index: 45°   Visibility: 5mi
Dew Point: 39°   Wind: 0mph
Humidity: 81%   Direction: NA
Pressure: 30.05"   Gusts: NA
Location:  41.27°N, 94.87°W
Report Text: KAIO 210235Z AUTO 00000KT 5SM HZ CLR 07/04 A3005 RMK AO2
Loading
Personal Weather Stations






























Interactive Weather Map New forecast layout! Learn more

10-Day Weather Forecast

Advertisements
Track Severe Weather on mobile